createdAt,value
2023-07-10T00:01:43.792Z,28.30
2023-07-10T00:04:17.508Z,28.30
2023-07-10T00:06:46.381Z,28.30
2023-07-10T00:09:15.354Z,28.30
2023-07-10T00:11:46.355Z,28.30
2023-07-10T00:14:22.372Z,28.30
2023-07-10T00:16:51.911Z,28.30
2023-07-10T00:19:23.837Z,28.30
2023-07-10T00:21:53.311Z,28.30
2023-07-10T00:24:21.832Z,28.30
2023-07-10T00:26:51.835Z,28.30
2023-07-10T00:29:32.949Z,28.30
2023-07-10T00:32:04.638Z,28.30
2023-07-10T00:34:33.299Z,28.30
2023-07-10T00:37:01.947Z,28.30
2023-07-10T00:39:32.577Z,28.30
2023-07-10T00:42:04.761Z,28.30
2023-07-10T00:44:38.002Z,28.20
2023-07-10T00:47:12.153Z,28.20
2023-07-10T00:49:46.435Z,28.20
2023-07-10T00:52:18.645Z,28.20
2023-07-10T00:54:50.667Z,28.20
2023-07-10T00:57:24.081Z,28.20
2023-07-10T00:59:53.445Z,28.20
2023-07-10T01:02:26.004Z,28.20
2023-07-10T01:05:01.406Z,28.20
2023-07-10T01:07:35.960Z,28.20
2023-07-10T01:10:09.704Z,28.20
2023-07-10T01:12:41.152Z,28.20
2023-07-10T01:15:11.315Z,28.20
2023-07-10T01:17:40.432Z,28.10
2023-07-10T01:20:35.647Z,28.20
2023-07-10T01:23:06.649Z,28.20
2023-07-10T01:25:41.598Z,28.20
2023-07-10T01:28:15.038Z,28.10
2023-07-10T01:30:45.870Z,28.10
2023-07-10T01:33:19.661Z,28.10
2023-07-10T01:35:51.690Z,28.10
2023-07-10T01:38:21.633Z,28.10
2023-07-10T01:40:55.877Z,28.10
2023-07-10T01:43:24.580Z,28.10
2023-07-10T01:45:53.196Z,28.10
2023-07-10T01:48:25.009Z,28.10
2023-07-10T01:50:54.126Z,28.10
2023-07-10T01:53:24.143Z,28.10
2023-07-10T01:55:53.247Z,28.10
2023-07-10T01:58:22.737Z,28.10
2023-07-10T02:00:51.331Z,28.10
2023-07-10T02:03:19.949Z,28.10
2023-07-10T02:05:48.505Z,28.10
2023-07-10T02:08:17.086Z,28.10
2023-07-10T02:10:47.078Z,28.00
2023-07-10T02:13:16.026Z,28.00
2023-07-10T02:15:44.609Z,28.00
2023-07-10T02:18:13.279Z,28.00
2023-07-10T02:20:43.264Z,28.00
2023-07-10T02:23:11.873Z,28.00
2023-07-10T02:25:41.589Z,28.00
2023-07-10T02:28:12.465Z,28.00
2023-07-10T02:30:41.961Z,28.00
2023-07-10T02:33:10.715Z,28.00
2023-07-10T02:35:39.256Z,28.00
2023-07-10T02:38:07.776Z,28.00
2023-07-10T02:40:36.511Z,28.00
2023-07-10T02:43:05.182Z,28.00
2023-07-10T02:45:37.082Z,28.00
2023-07-10T02:48:06.032Z,28.00
2023-07-10T02:50:35.305Z,28.00
2023-07-10T02:53:04.103Z,28.00
2023-07-10T02:55:32.681Z,27.90
2023-07-10T02:58:02.298Z,27.90
2023-07-10T03:00:31.019Z,27.90
2023-07-10T03:03:01.053Z,27.90
2023-07-10T03:05:29.910Z,27.90
2023-07-10T03:07:58.693Z,27.90
2023-07-10T03:10:27.372Z,27.90
2023-07-10T03:12:56.068Z,27.90
2023-07-10T03:15:25.209Z,27.90
2023-07-10T03:17:53.779Z,27.90
2023-07-10T03:20:24.713Z,27.90
2023-07-10T03:22:53.340Z,27.90
2023-07-10T03:25:21.985Z,27.90
2023-07-10T03:27:53.394Z,27.90
2023-07-10T03:30:22.455Z,27.80
2023-07-10T03:32:52.390Z,27.80
2023-07-10T03:35:21.094Z,27.80
2023-07-10T03:37:51.044Z,27.80
2023-07-10T03:40:19.876Z,27.80
2023-07-10T03:42:48.516Z,27.80
2023-07-10T03:45:17.285Z,27.80
2023-07-10T03:47:45.928Z,27.80
2023-07-10T03:50:15.365Z,27.80
2023-07-10T03:52:44.376Z,27.80
2023-07-10T03:55:14.413Z,27.80
2023-07-10T03:57:42.934Z,27.80
2023-07-10T04:00:12.674Z,27.80
2023-07-10T04:02:41.290Z,27.80
2023-07-10T04:05:10.191Z,27.80
2023-07-10T04:07:38.803Z,27.70
2023-07-10T04:10:08.171Z,27.70
2023-07-10T04:12:41.653Z,27.70
2023-07-10T04:15:11.085Z,27.70
2023-07-10T04:17:39.557Z,27.70
2023-07-10T04:20:09.767Z,27.70
2023-07-10T04:22:38.451Z,27.70
2023-07-10T04:25:11.475Z,27.70
2023-07-10T04:27:41.312Z,27.70
2023-07-10T04:30:10.674Z,27.70
2023-07-10T04:32:39.387Z,27.70
2023-07-10T04:35:08.871Z,27.70
2023-07-10T04:37:37.320Z,27.70
2023-07-10T04:40:06.992Z,27.70
2023-07-10T04:42:35.805Z,27.60
2023-07-10T04:45:06.760Z,27.60
2023-07-10T04:47:35.434Z,27.60
2023-07-10T04:50:04.120Z,27.60
2023-07-10T04:52:32.724Z,27.60
2023-07-10T04:55:01.301Z,27.60
2023-07-10T04:57:29.982Z,27.60
2023-07-10T04:59:58.603Z,27.60
2023-07-10T05:02:28.945Z,27.60
2023-07-10T05:04:57.698Z,27.60
2023-07-10T05:07:26.233Z,27.60
2023-07-10T05:09:54.744Z,27.60
2023-07-10T05:12:23.334Z,27.60
2023-07-10T05:14:52.184Z,27.60
2023-07-10T05:17:21.012Z,27.60
2023-07-10T05:19:51.049Z,27.60
2023-07-10T05:22:19.741Z,27.60
2023-07-10T05:24:48.279Z,27.60
2023-07-10T05:27:16.999Z,27.60
2023-07-10T05:29:45.785Z,27.60
2023-07-10T05:32:14.378Z,27.60
2023-07-10T05:34:43.264Z,27.50
2023-07-10T05:37:13.531Z,27.60
2023-07-10T05:39:42.006Z,27.60
2023-07-10T05:42:10.605Z,27.60
2023-07-10T05:44:39.208Z,27.50
2023-07-10T05:47:07.883Z,27.50
2023-07-10T05:49:36.598Z,27.50
2023-07-10T05:52:05.687Z,27.50
2023-07-10T05:54:35.758Z,27.50
2023-07-10T05:57:04.451Z,27.50
2023-07-10T05:59:33.598Z,27.50
2023-07-10T06:02:02.287Z,27.50
2023-07-10T06:04:31.227Z,27.50
2023-07-10T06:06:59.761Z,27.50
2023-07-10T06:09:28.333Z,27.50
2023-07-10T06:11:58.296Z,27.50
2023-07-10T06:14:26.968Z,27.50
2023-07-10T06:16:55.674Z,27.50
2023-07-10T06:24:35.040Z,27.50
2023-07-10T06:27:06.524Z,27.50
2023-07-10T06:29:36.183Z,27.40
2023-07-10T06:32:07.534Z,27.50
2023-07-10T06:34:35.966Z,27.50
2023-07-10T06:37:04.881Z,27.50
2023-07-10T06:39:33.676Z,27.50
2023-07-10T06:42:02.318Z,27.40
2023-07-10T06:44:34.900Z,27.40
2023-07-10T06:47:03.587Z,27.40
2023-07-10T06:49:32.436Z,27.40
2023-07-10T06:52:00.909Z,27.40
2023-07-10T06:54:31.201Z,27.40
2023-07-10T06:57:00.045Z,27.40
2023-07-10T06:59:28.824Z,27.40
2023-07-10T07:01:58.908Z,27.40
2023-07-10T07:04:27.732Z,27.40
2023-07-10T07:06:56.513Z,27.40
2023-07-10T07:09:25.293Z,27.40
2023-07-10T07:11:53.989Z,27.40
2023-07-10T07:14:22.887Z,27.40
2023-07-10T07:16:51.695Z,27.40
2023-07-10T07:19:22.277Z,27.40
2023-07-10T07:21:51.095Z,27.40
2023-07-10T07:24:19.731Z,27.40
2023-07-10T07:26:50.097Z,27.40
2023-07-10T07:29:20.348Z,27.40
2023-07-10T07:31:49.074Z,27.40
2023-07-10T07:34:17.725Z,27.40
2023-07-10T07:36:48.373Z,27.40
2023-07-10T07:39:17.676Z,27.40
2023-07-10T07:41:46.408Z,27.40
2023-07-10T07:44:15.291Z,27.40
2023-07-10T07:46:44.668Z,27.40
2023-07-10T07:49:13.676Z,27.40
2023-07-10T07:51:42.461Z,27.40
2023-07-10T07:54:14.581Z,27.40
2023-07-10T07:56:43.311Z,27.40
2023-07-10T07:59:12.448Z,27.40
2023-07-10T08:01:41.052Z,27.40
2023-07-10T08:04:09.846Z,27.40
2023-07-10T08:06:38.668Z,27.40
2023-07-10T08:09:07.510Z,27.40
2023-07-10T08:11:38.988Z,27.40
2023-07-10T08:14:07.808Z,27.40
2023-07-10T08:16:37.524Z,27.40
2023-07-10T08:19:06.787Z,27.30
2023-07-10T08:21:35.559Z,27.30
2023-07-10T08:24:04.324Z,27.30
2023-07-10T08:26:33.100Z,27.30
2023-07-10T08:29:25.332Z,27.30
2023-07-10T08:31:56.023Z,27.30
2023-07-10T08:34:26.606Z,27.30
2023-07-10T08:36:55.823Z,27.30
2023-07-10T08:39:26.170Z,27.30
2023-07-10T08:41:57.885Z,27.30
2023-07-10T08:44:34.296Z,27.30
2023-07-10T08:47:06.562Z,27.30
2023-07-10T08:49:39.042Z,27.30
2023-07-10T08:52:10.383Z,27.30
2023-07-10T08:54:39.723Z,27.30
2023-07-10T08:57:19.774Z,27.30
2023-07-10T08:59:56.025Z,27.30
2023-07-10T09:02:34.193Z,27.30
2023-07-10T09:05:05.278Z,27.30
2023-07-10T09:07:40.406Z,27.30
2023-07-10T09:10:14.907Z,27.30
2023-07-10T09:12:49.299Z,27.30
2023-07-10T09:15:26.559Z,27.30
2023-07-10T09:18:07.132Z,27.30
2023-07-10T09:20:37.783Z,27.30
2023-07-10T09:23:16.277Z,27.30
2023-07-10T09:25:45.649Z,27.30
2023-07-10T09:28:14.260Z,27.30
2023-07-10T09:30:53.688Z,27.30
2023-07-10T09:33:23.693Z,27.30
2023-07-10T09:35:52.175Z,27.30
2023-07-10T09:38:21.474Z,27.30
2023-07-10T09:40:52.264Z,27.30
2023-07-10T09:43:24.264Z,27.30
2023-07-10T09:45:59.292Z,27.30
2023-07-10T09:48:36.010Z,27.30
2023-07-10T09:51:07.760Z,27.30
2023-07-10T09:53:39.227Z,27.20
2023-07-10T09:56:08.018Z,27.30
2023-07-10T09:58:48.195Z,27.30
2023-07-10T10:01:18.155Z,27.30
2023-07-10T10:03:46.612Z,27.30
2023-07-10T10:06:22.576Z,27.30
2023-07-10T10:08:52.031Z,27.30
2023-07-10T10:11:33.575Z,27.30
2023-07-10T10:14:04.985Z,27.30
2023-07-10T10:16:38.882Z,27.30
2023-07-10T10:19:13.381Z,27.30
2023-07-10T10:21:42.465Z,27.30
2023-07-10T10:24:13.555Z,27.30
2023-07-10T10:27:01.541Z,27.30
2023-07-10T10:29:52.768Z,27.30
2023-07-10T10:32:30.151Z,27.30
2023-07-10T10:35:10.913Z,27.30
2023-07-10T10:37:56.337Z,27.30
2023-07-10T10:40:38.126Z,27.30
2023-07-10T10:43:35.399Z,27.30
2023-07-10T10:46:13.212Z,27.30
2023-07-10T10:48:49.489Z,27.30
2023-07-10T10:51:30.382Z,27.30
2023-07-10T10:54:23.326Z,27.30
2023-07-10T10:57:03.222Z,27.30
2023-07-10T10:59:45.155Z,27.30
2023-07-10T11:02:31.263Z,27.30
2023-07-10T11:05:11.230Z,27.30
2023-07-10T11:07:41.369Z,27.30
2023-07-10T11:10:16.286Z,27.30
2023-07-10T11:12:45.224Z,27.40
2023-07-10T11:15:18.802Z,27.40
2023-07-10T11:17:51.194Z,27.40
2023-07-10T11:20:22.075Z,27.40
2023-07-10T11:22:52.764Z,27.40
2023-07-10T11:25:35.720Z,27.30
2023-07-10T11:28:05.675Z,27.30
2023-07-10T11:30:36.367Z,27.30
2023-07-10T11:33:16.878Z,27.30
2023-07-10T11:36:15.086Z,27.30
2023-07-10T11:39:00.767Z,27.30
2023-07-10T11:41:31.233Z,27.30
2023-07-10T11:44:20.668Z,27.30
2023-07-10T11:47:05.300Z,27.30
2023-07-10T11:49:47.546Z,27.30
2023-07-10T11:52:34.418Z,27.30
2023-07-10T11:55:08.926Z,27.30
2023-07-10T11:57:38.544Z,27.30
2023-07-10T12:00:22.130Z,27.30
2023-07-10T12:02:55.913Z,27.30
2023-07-10T12:05:26.752Z,27.30
2023-07-10T12:08:03.776Z,27.30
2023-07-10T12:10:38.928Z,27.40
2023-07-10T12:13:21.772Z,27.40
2023-07-10T12:15:52.204Z,27.40
2023-07-10T12:18:26.574Z,27.40
2023-07-10T12:20:56.445Z,27.40
2023-07-10T12:23:26.297Z,27.40
2023-07-10T12:25:56.891Z,27.40
2023-07-10T12:28:28.327Z,27.40
2023-07-10T12:31:00.649Z,27.40
2023-07-10T12:33:35.730Z,27.40
2023-07-10T12:36:07.228Z,27.40
2023-07-10T12:38:38.548Z,27.40
2023-07-10T12:41:08.906Z,27.40
2023-07-10T12:43:40.533Z,27.50
2023-07-10T12:46:17.685Z,27.50
2023-07-10T12:48:54.585Z,27.50
2023-07-10T12:51:29.183Z,27.50
2023-07-10T12:54:01.710Z,27.50
2023-07-10T12:56:33.912Z,27.50
2023-07-10T12:59:15.449Z,27.50
2023-07-10T13:01:51.277Z,27.50
2023-07-10T13:04:23.970Z,27.50
2023-07-10T13:07:16.636Z,27.50
2023-07-10T13:09:57.876Z,27.50
2023-07-10T13:12:29.541Z,27.50
2023-07-10T13:15:00.013Z,27.50
2023-07-10T13:17:31.650Z,27.50
2023-07-10T13:20:09.131Z,27.60
2023-07-10T13:22:40.486Z,27.60
2023-07-10T13:25:12.612Z,27.60
2023-07-10T13:27:40.991Z,27.60
2023-07-10T13:30:17.962Z,27.60
2023-07-10T13:32:46.628Z,27.60
2023-07-10T13:35:15.853Z,27.60
2023-07-10T13:37:44.897Z,27.60
2023-07-10T13:40:22.792Z,27.60
2023-07-10T13:42:51.587Z,27.60
2023-07-10T13:45:20.041Z,27.60
2023-07-10T13:47:50.447Z,27.60
2023-07-10T13:50:19.374Z,27.60
2023-07-10T13:52:47.843Z,27.60
2023-07-10T13:55:19.059Z,27.60
2023-07-10T13:57:48.594Z,27.60
2023-07-10T14:00:17.772Z,27.60
2023-07-10T14:02:49.435Z,27.60
2023-07-10T14:05:20.245Z,27.60
2023-07-10T14:07:48.936Z,27.60
2023-07-10T14:10:21.871Z,27.70
2023-07-10T14:12:50.692Z,27.70
2023-07-10T14:15:21.484Z,27.70
2023-07-10T14:17:53.473Z,27.70
2023-07-10T14:20:25.009Z,27.70
2023-07-10T14:22:53.561Z,27.70
2023-07-10T14:25:23.793Z,27.70
2023-07-10T14:27:52.153Z,27.70
2023-07-10T14:30:23.168Z,27.70
2023-07-10T14:32:51.629Z,27.70
2023-07-10T14:35:22.004Z,27.70
2023-07-10T14:37:51.122Z,27.70
2023-07-10T14:40:22.895Z,27.70
2023-07-10T14:42:53.250Z,27.70
2023-07-10T14:45:21.949Z,27.70
2023-07-10T14:47:50.423Z,27.70
2023-07-10T14:50:22.596Z,27.70
2023-07-10T14:52:54.614Z,27.80
2023-07-10T14:55:24.640Z,27.80
2023-07-10T14:57:54.716Z,27.80
2023-07-10T15:00:26.394Z,27.80
2023-07-10T15:02:57.989Z,27.80
2023-07-10T15:05:26.424Z,27.80
2023-07-10T15:07:58.725Z,27.80
2023-07-10T15:10:30.011Z,27.80
2023-07-10T15:13:04.549Z,27.80
2023-07-10T15:15:36.284Z,27.80
2023-07-10T15:18:05.167Z,27.80
2023-07-10T15:20:33.749Z,27.80
2023-07-10T15:23:02.361Z,27.90
2023-07-10T15:25:31.933Z,27.90
2023-07-10T15:28:01.832Z,27.90
2023-07-10T15:30:30.537Z,27.90
2023-07-10T15:32:59.225Z,27.90
2023-07-10T15:35:28.207Z,27.90
2023-07-10T15:37:56.952Z,27.90
2023-07-10T15:40:29.835Z,27.90
2023-07-10T15:43:02.901Z,27.90
2023-07-10T15:45:32.648Z,27.90
2023-07-10T15:48:04.134Z,27.90
2023-07-10T15:50:34.285Z,27.90
2023-07-10T15:53:02.832Z,27.90
2023-07-10T15:55:33.750Z,27.90
2023-07-10T15:58:05.945Z,28.00
2023-07-10T16:00:37.340Z,28.00
2023-07-10T16:03:16.359Z,28.00
2023-07-10T16:05:45.062Z,28.00
2023-07-10T16:08:16.580Z,28.00
2023-07-10T16:10:46.621Z,28.00
2023-07-10T16:13:20.719Z,28.00
2023-07-10T16:15:50.207Z,28.00
2023-07-10T16:18:24.103Z,28.00
2023-07-10T16:20:54.107Z,28.00
2023-07-10T16:23:28.774Z,28.00
2023-07-10T16:25:57.399Z,28.10
2023-07-10T16:28:29.278Z,28.10
2023-07-10T16:30:58.128Z,28.10
2023-07-10T16:33:29.534Z,28.10
2023-07-10T16:35:58.149Z,28.10
2023-07-10T16:38:27.516Z,28.10
2023-07-10T16:40:58.126Z,28.10
2023-07-10T16:43:33.748Z,28.10
2023-07-10T16:46:03.239Z,28.10
2023-07-10T16:48:32.302Z,28.10
2023-07-10T16:51:03.178Z,28.10
2023-07-10T16:53:33.755Z,28.10
2023-07-10T16:56:04.723Z,28.10
2023-07-10T16:58:36.196Z,28.10
2023-07-10T17:01:14.082Z,28.10
2023-07-10T17:03:42.593Z,28.20
2023-07-10T17:06:14.809Z,28.20
2023-07-10T17:08:43.414Z,28.20
2023-07-10T17:11:13.947Z,28.20
2023-07-10T17:13:43.645Z,28.20
2023-07-10T17:16:12.816Z,28.20
2023-07-10T17:18:41.852Z,28.20
2023-07-10T17:21:13.797Z,28.20
2023-07-10T17:23:43.423Z,28.20
2023-07-10T17:26:17.094Z,28.20
2023-07-10T17:28:47.646Z,28.20
2023-07-10T17:31:21.836Z,28.20
2023-07-10T17:33:51.570Z,28.20
2023-07-10T17:36:20.555Z,28.20
2023-07-10T17:38:49.638Z,28.20
2023-07-10T17:41:20.471Z,28.20
2023-07-10T17:43:54.781Z,28.20
2023-07-10T17:46:23.590Z,28.20
2023-07-10T17:48:52.153Z,28.20
2023-07-10T17:51:27.143Z,28.20
2023-07-10T17:53:56.297Z,28.30
2023-07-10T17:56:25.900Z,28.30
2023-07-10T17:58:56.755Z,28.30
2023-07-10T18:01:27.263Z,28.30
2023-07-10T18:03:57.894Z,28.30
2023-07-10T18:06:26.988Z,28.30
2023-07-10T18:08:55.372Z,28.30
2023-07-10T18:11:30.163Z,28.30
2023-07-10T18:14:00.227Z,28.30
2023-07-10T18:16:28.924Z,28.30
2023-07-10T18:18:57.447Z,28.30
2023-07-10T18:21:28.169Z,28.30
2023-07-10T18:23:58.647Z,28.30
2023-07-10T18:26:29.334Z,28.30
2023-07-10T18:28:59.739Z,28.30
2023-07-10T18:31:30.318Z,28.30
2023-07-10T18:33:58.747Z,28.30
2023-07-10T18:36:30.145Z,28.40
2023-07-10T18:38:58.598Z,28.30
2023-07-10T18:41:29.600Z,28.40
2023-07-10T18:44:04.871Z,28.30
2023-07-10T18:46:33.513Z,28.40
2023-07-10T18:49:14.010Z,28.40
2023-07-10T18:51:45.214Z,28.40
2023-07-10T18:54:17.237Z,28.40
2023-07-10T18:56:45.778Z,28.40
2023-07-10T18:59:21.822Z,28.40
2023-07-10T19:01:53.826Z,28.40
2023-07-10T19:04:23.368Z,28.40
2023-07-10T19:06:53.084Z,28.40
2023-07-10T19:09:22.973Z,28.40
2023-07-10T19:11:51.987Z,28.40
2023-07-10T19:14:25.652Z,28.40
2023-07-10T19:16:57.019Z,28.50
2023-07-10T19:19:28.805Z,28.40
2023-07-10T19:21:57.300Z,28.50
2023-07-10T19:24:28.264Z,28.50
2023-07-10T19:26:57.254Z,28.50
2023-07-10T19:29:27.048Z,28.50
2023-07-10T19:32:00.147Z,28.50
2023-07-10T19:34:30.188Z,28.50
2023-07-10T19:36:58.892Z,28.50
2023-07-10T19:39:28.854Z,28.50
2023-07-10T19:41:57.231Z,28.50
2023-07-10T19:44:44.866Z,28.50
2023-07-10T19:47:15.091Z,28.50
2023-07-10T19:49:43.766Z,28.50
2023-07-10T19:52:14.430Z,28.50
2023-07-10T19:54:44.949Z,28.50
2023-07-10T19:57:19.711Z,28.50
2023-07-10T19:59:49.580Z,28.50
2023-07-10T20:02:24.346Z,28.50
2023-07-10T20:04:52.968Z,28.50
2023-07-10T20:07:21.582Z,28.50
2023-07-10T20:09:50.156Z,28.50
2023-07-10T20:12:20.892Z,28.50
2023-07-10T20:14:51.167Z,28.50
2023-07-10T20:17:43.409Z,28.50
2023-07-10T20:20:18.678Z,28.50
2023-07-10T20:22:47.312Z,28.50
2023-07-10T20:25:16.170Z,28.50
2023-07-10T20:27:45.032Z,28.50
2023-07-10T20:30:22.528Z,28.50
2023-07-10T20:32:51.202Z,28.50
2023-07-10T20:35:19.776Z,28.50
2023-07-10T20:37:49.636Z,28.50
2023-07-10T20:40:21.550Z,28.60
2023-07-10T20:42:50.583Z,28.50
2023-07-10T20:45:20.445Z,28.50
2023-07-10T20:47:51.576Z,28.50
2023-07-10T20:50:20.932Z,28.50
2023-07-10T20:52:50.666Z,28.50
2023-07-10T20:55:19.871Z,28.50
2023-07-10T20:57:48.795Z,28.60
2023-07-10T21:00:20.475Z,28.50
2023-07-10T21:02:49.157Z,28.50
2023-07-10T21:05:17.933Z,28.50
2023-07-10T21:07:46.921Z,28.50
2023-07-10T21:10:15.523Z,28.60
2023-07-10T21:12:44.054Z,28.50
2023-07-10T21:15:15.741Z,28.60
2023-07-10T21:17:45.857Z,28.60
2023-07-10T21:20:19.716Z,28.60
2023-07-10T21:22:48.609Z,28.60
2023-07-10T21:25:17.258Z,28.60
2023-07-10T21:27:45.900Z,28.60
2023-07-10T21:30:19.070Z,28.60
2023-07-10T21:32:49.684Z,28.50
2023-07-10T21:35:28.008Z,28.60
2023-07-10T21:37:56.570Z,28.60
2023-07-10T21:40:25.169Z,31.00
2023-07-10T21:42:53.857Z,28.60
2023-07-10T21:45:22.531Z,28.60
2023-07-10T21:47:52.536Z,28.50
2023-07-10T21:50:21.356Z,28.60
2023-07-10T21:52:51.456Z,28.60
2023-07-10T21:55:24.279Z,28.60
2023-07-10T21:57:52.831Z,28.60
2023-07-10T22:00:21.536Z,28.60
2023-07-10T22:02:50.302Z,28.60
2023-07-10T22:05:20.482Z,28.60
2023-07-10T22:07:49.028Z,28.60
2023-07-10T22:10:17.754Z,28.60
2023-07-10T22:12:49.328Z,28.60
2023-07-10T22:15:20.457Z,28.60
2023-07-10T22:17:49.254Z,28.60
2023-07-10T22:20:20.480Z,28.60
2023-07-10T22:22:49.662Z,28.60
2023-07-10T22:25:18.361Z,28.60
2023-07-10T22:27:48.421Z,28.60
2023-07-10T22:30:17.015Z,28.60
2023-07-10T22:32:45.586Z,28.60
2023-07-10T22:35:14.169Z,28.60
2023-07-10T22:37:44.086Z,28.60
2023-07-10T22:40:13.488Z,28.60
2023-07-10T22:42:42.399Z,28.60
2023-07-10T22:45:15.376Z,28.60
2023-07-10T22:47:43.883Z,28.60
2023-07-10T22:50:13.645Z,28.60
2023-07-10T22:52:44.156Z,28.60
2023-07-10T22:55:13.059Z,28.60
2023-07-10T22:57:41.930Z,28.60
2023-07-10T23:00:16.714Z,28.60
2023-07-10T23:02:47.341Z,28.60
2023-07-10T23:05:16.029Z,28.60
2023-07-10T23:07:46.279Z,28.60
2023-07-10T23:10:20.057Z,28.60
2023-07-10T23:12:48.674Z,28.60
2023-07-10T23:15:18.183Z,28.60
2023-07-10T23:17:48.609Z,28.50
2023-07-10T23:20:21.902Z,28.50
2023-07-10T23:22:53.541Z,28.60
2023-07-10T23:25:22.660Z,28.60
2023-07-10T23:27:57.336Z,28.50
2023-07-10T23:30:25.838Z,28.50
2023-07-10T23:32:56.637Z,28.50
2023-07-10T23:35:26.596Z,28.50
2023-07-10T23:37:56.670Z,28.50
2023-07-10T23:40:28.048Z,28.50
2023-07-10T23:42:56.721Z,28.50
2023-07-10T23:45:25.330Z,28.50
2023-07-10T23:47:53.896Z,28.50
2023-07-10T23:50:23.035Z,28.50
2023-07-10T23:52:52.796Z,28.50
2023-07-10T23:55:25.933Z,28.50
2023-07-10T23:57:54.384Z,28.50
